sensor_id;sensor_type;location;lat;lon;timestamp;P1;durP1;ratioP1;P2;durP2;ratioP2
13425;SDS011;6785;57.918;12.530;2023-06-26T00:01:30;4.00;;;3.60;;
13425;SDS011;6785;57.918;12.530;2023-06-26T00:03:59;3.73;;;3.10;;
13425;SDS011;6785;57.918;12.530;2023-06-26T00:06:27;3.20;;;2.90;;
13425;SDS011;6785;57.918;12.530;2023-06-26T00:08:54;5.23;;;3.60;;
13425;SDS011;6785;57.918;12.530;2023-06-26T00:11:24;3.87;;;3.57;;
13425;SDS011;6785;57.918;12.530;2023-06-26T00:13:52;3.53;;;3.23;;
13425;SDS011;6785;57.918;12.530;2023-06-26T00:16:19;3.83;;;3.13;;
13425;SDS011;6785;57.918;12.530;2023-06-26T00:18:46;4.23;;;3.83;;
13425;SDS011;6785;57.918;12.530;2023-06-26T00:21:14;4.40;;;3.70;;
13425;SDS011;6785;57.918;12.530;2023-06-26T00:23:41;5.73;;;3.63;;
13425;SDS011;6785;57.918;12.530;2023-06-26T00:26:08;6.40;;;3.53;;
13425;SDS011;6785;57.918;12.530;2023-06-26T00:28:35;4.33;;;3.83;;
13425;SDS011;6785;57.918;12.530;2023-06-26T00:31:02;4.73;;;3.60;;
13425;SDS011;6785;57.918;12.530;2023-06-26T00:33:29;3.90;;;3.50;;
13425;SDS011;6785;57.918;12.530;2023-06-26T00:35:56;4.17;;;3.77;;
13425;SDS011;6785;57.918;12.530;2023-06-26T00:38:24;4.33;;;3.43;;
13425;SDS011;6785;57.918;12.530;2023-06-26T00:40:51;4.47;;;3.30;;
13425;SDS011;6785;57.918;12.530;2023-06-26T00:43:19;4.20;;;3.80;;
13425;SDS011;6785;57.918;12.530;2023-06-26T00:45:46;4.10;;;3.70;;
13425;SDS011;6785;57.918;12.530;2023-06-26T00:48:13;4.23;;;3.80;;
13425;SDS011;6785;57.918;12.530;2023-06-26T00:50:40;3.90;;;3.50;;
13425;SDS011;6785;57.918;12.530;2023-06-26T00:53:09;4.03;;;3.63;;
13425;SDS011;6785;57.918;12.530;2023-06-26T00:55:38;4.20;;;3.80;;
13425;SDS011;6785;57.918;12.530;2023-06-26T00:58:06;4.37;;;3.80;;
13425;SDS011;6785;57.918;12.530;2023-06-26T01:00:33;4.40;;;4.00;;
13425;SDS011;6785;57.918;12.530;2023-06-26T01:03:00;5.40;;;4.40;;
13425;SDS011;6785;57.918;12.530;2023-06-26T01:05:28;4.83;;;4.00;;
13425;SDS011;6785;57.918;12.530;2023-06-26T01:07:55;4.63;;;4.10;;
13425;SDS011;6785;57.918;12.530;2023-06-26T01:10:24;4.97;;;4.47;;
13425;SDS011;6785;57.918;12.530;2023-06-26T01:12:55;6.93;;;4.10;;
13425;SDS011;6785;57.918;12.530;2023-06-26T01:15:23;4.63;;;3.80;;
13425;SDS011;6785;57.918;12.530;2023-06-26T01:17:51;4.93;;;3.70;;
13425;SDS011;6785;57.918;12.530;2023-06-26T01:20:18;4.30;;;3.90;;
13425;SDS011;6785;57.918;12.530;2023-06-26T01:22:48;4.27;;;3.73;;
13425;SDS011;6785;57.918;12.530;2023-06-26T01:25:41;3.87;;;3.43;;
13425;SDS011;6785;57.918;12.530;2023-06-26T01:28:30;4.60;;;4.10;;
13425;SDS011;6785;57.918;12.530;2023-06-26T01:31:00;5.67;;;4.20;;
13425;SDS011;6785;57.918;12.530;2023-06-26T01:33:30;4.60;;;4.10;;
13425;SDS011;6785;57.918;12.530;2023-06-26T01:35:58;4.87;;;4.00;;
13425;SDS011;6785;57.918;12.530;2023-06-26T01:38:26;5.00;;;4.23;;
13425;SDS011;6785;57.918;12.530;2023-06-26T01:40:53;5.03;;;4.13;;
13425;SDS011;6785;57.918;12.530;2023-06-26T01:43:21;4.77;;;4.27;;
13425;SDS011;6785;57.918;12.530;2023-06-26T01:45:59;4.63;;;3.83;;
13425;SDS011;6785;57.918;12.530;2023-06-26T01:48:33;4.40;;;3.80;;
13425;SDS011;6785;57.918;12.530;2023-06-26T01:51:07;5.20;;;4.30;;
13425;SDS011;6785;57.918;12.530;2023-06-26T01:53:38;5.20;;;4.03;;
13425;SDS011;6785;57.918;12.530;2023-06-26T01:56:11;4.60;;;4.10;;
13425;SDS011;6785;57.918;12.530;2023-06-26T01:58:45;4.80;;;4.30;;
13425;SDS011;6785;57.918;12.530;2023-06-26T02:01:15;5.53;;;4.53;;
13425;SDS011;6785;57.918;12.530;2023-06-26T02:03:42;6.83;;;4.33;;
13425;SDS011;6785;57.918;12.530;2023-06-26T02:06:09;4.93;;;4.43;;
13425;SDS011;6785;57.918;12.530;2023-06-26T02:08:36;5.20;;;4.30;;
13425;SDS011;6785;57.918;12.530;2023-06-26T02:11:03;6.30;;;4.40;;
13425;SDS011;6785;57.918;12.530;2023-06-26T02:13:30;5.30;;;4.53;;
13425;SDS011;6785;57.918;12.530;2023-06-26T02:15:57;4.97;;;4.37;;
13425;SDS011;6785;57.918;12.530;2023-06-26T02:18:25;5.10;;;4.50;;
13425;SDS011;6785;57.918;12.530;2023-06-26T02:20:52;5.33;;;4.43;;
13425;SDS011;6785;57.918;12.530;2023-06-26T02:23:19;5.03;;;4.53;;
13425;SDS011;6785;57.918;12.530;2023-06-26T02:25:46;5.10;;;4.60;;
13425;SDS011;6785;57.918;12.530;2023-06-26T02:28:13;5.97;;;4.53;;
13425;SDS011;6785;57.918;12.530;2023-06-26T02:30:40;5.73;;;4.60;;
13425;SDS011;6785;57.918;12.530;2023-06-26T02:33:08;4.67;;;4.27;;
13425;SDS011;6785;57.918;12.530;2023-06-26T02:35:36;4.23;;;3.83;;
13425;SDS011;6785;57.918;12.530;2023-06-26T02:38:03;5.33;;;4.43;;
13425;SDS011;6785;57.918;12.530;2023-06-26T02:40:30;4.77;;;4.27;;
13425;SDS011;6785;57.918;12.530;2023-06-26T02:42:57;7.07;;;4.63;;
13425;SDS011;6785;57.918;12.530;2023-06-26T02:45:24;6.30;;;4.47;;
13425;SDS011;6785;57.918;12.530;2023-06-26T02:47:51;6.13;;;4.30;;
13425;SDS011;6785;57.918;12.530;2023-06-26T02:50:18;4.90;;;4.23;;
13425;SDS011;6785;57.918;12.530;2023-06-26T02:52:47;5.20;;;4.70;;
13425;SDS011;6785;57.918;12.530;2023-06-26T02:55:17;7.87;;;5.20;;
13425;SDS011;6785;57.918;12.530;2023-06-26T02:57:44;5.80;;;4.50;;
13425;SDS011;6785;57.918;12.530;2023-06-26T03:00:12;5.50;;;4.33;;
13425;SDS011;6785;57.918;12.530;2023-06-26T03:02:40;4.83;;;4.33;;
13425;SDS011;6785;57.918;12.530;2023-06-26T03:05:07;4.90;;;4.43;;
13425;SDS011;6785;57.918;12.530;2023-06-26T03:07:34;5.83;;;4.57;;
13425;SDS011;6785;57.918;12.530;2023-06-26T03:10:02;6.30;;;4.33;;
13425;SDS011;6785;57.918;12.530;2023-06-26T03:12:30;7.57;;;5.00;;
13425;SDS011;6785;57.918;12.530;2023-06-26T03:14:57;5.23;;;4.70;;
13425;SDS011;6785;57.918;12.530;2023-06-26T03:17:24;5.20;;;4.70;;
13425;SDS011;6785;57.918;12.530;2023-06-26T03:19:51;5.47;;;4.73;;
13425;SDS011;6785;57.918;12.530;2023-06-26T03:22:18;4.93;;;4.27;;
13425;SDS011;6785;57.918;12.530;2023-06-26T03:24:45;5.03;;;4.47;;
13425;SDS011;6785;57.918;12.530;2023-06-26T03:27:13;6.63;;;4.40;;
13425;SDS011;6785;57.918;12.530;2023-06-26T03:29:40;5.27;;;4.73;;
13425;SDS011;6785;57.918;12.530;2023-06-26T03:32:07;5.60;;;4.80;;
13425;SDS011;6785;57.918;12.530;2023-06-26T03:34:34;5.87;;;4.20;;
13425;SDS011;6785;57.918;12.530;2023-06-26T03:37:01;5.30;;;4.50;;
13425;SDS011;6785;57.918;12.530;2023-06-26T03:39:28;4.77;;;4.27;;
13425;SDS011;6785;57.918;12.530;2023-06-26T03:41:55;8.13;;;5.00;;
13425;SDS011;6785;57.918;12.530;2023-06-26T03:44:27;4.90;;;4.40;;
13425;SDS011;6785;57.918;12.530;2023-06-26T03:46:55;5.03;;;4.57;;
13425;SDS011;6785;57.918;12.530;2023-06-26T03:49:22;8.47;;;4.80;;
13425;SDS011;6785;57.918;12.530;2023-06-26T03:51:48;5.00;;;4.50;;
13425;SDS011;6785;57.918;12.530;2023-06-26T03:54:17;5.90;;;4.70;;
13425;SDS011;6785;57.918;12.530;2023-06-26T03:56:43;7.43;;;4.37;;
13425;SDS011;6785;57.918;12.530;2023-06-26T03:59:10;4.90;;;4.40;;
13425;SDS011;6785;57.918;12.530;2023-06-26T04:01:39;4.37;;;3.97;;
13425;SDS011;6785;57.918;12.530;2023-06-26T04:04:05;7.07;;;4.33;;
13425;SDS011;6785;57.918;12.530;2023-06-26T04:06:32;4.83;;;4.07;;
13425;SDS011;6785;57.918;12.530;2023-06-26T04:08:59;5.23;;;4.20;;
13425;SDS011;6785;57.918;12.530;2023-06-26T04:11:27;4.93;;;4.37;;
13425;SDS011;6785;57.918;12.530;2023-06-26T04:13:54;4.87;;;4.40;;
13425;SDS011;6785;57.918;12.530;2023-06-26T04:16:21;6.87;;;4.17;;
13425;SDS011;6785;57.918;12.530;2023-06-26T04:18:51;4.50;;;3.80;;
13425;SDS011;6785;57.918;12.530;2023-06-26T04:21:19;4.97;;;4.47;;
13425;SDS011;6785;57.918;12.530;2023-06-26T04:23:46;4.53;;;4.13;;
13425;SDS011;6785;57.918;12.530;2023-06-26T04:26:13;4.70;;;4.30;;
13425;SDS011;6785;57.918;12.530;2023-06-26T04:28:40;4.50;;;4.10;;
13425;SDS011;6785;57.918;12.530;2023-06-26T04:31:08;4.30;;;3.90;;
13425;SDS011;6785;57.918;12.530;2023-06-26T04:33:35;6.20;;;4.70;;
13425;SDS011;6785;57.918;12.530;2023-06-26T04:36:04;4.90;;;4.43;;
13425;SDS011;6785;57.918;12.530;2023-06-26T04:38:32;5.00;;;4.07;;
13425;SDS011;6785;57.918;12.530;2023-06-26T04:41:00;5.37;;;4.87;;
13425;SDS011;6785;57.918;12.530;2023-06-26T04:43:27;4.37;;;3.97;;
13425;SDS011;6785;57.918;12.530;2023-06-26T04:45:54;4.10;;;3.67;;
13425;SDS011;6785;57.918;12.530;2023-06-26T04:48:22;7.00;;;4.23;;
13425;SDS011;6785;57.918;12.530;2023-06-26T04:50:49;4.90;;;4.40;;
13425;SDS011;6785;57.918;12.530;2023-06-26T04:53:20;5.57;;;4.30;;
13425;SDS011;6785;57.918;12.530;2023-06-26T04:55:48;4.67;;;4.27;;
13425;SDS011;6785;57.918;12.530;2023-06-26T04:58:15;5.60;;;4.40;;
13425;SDS011;6785;57.918;12.530;2023-06-26T05:00:42;4.40;;;4.00;;
13425;SDS011;6785;57.918;12.530;2023-06-26T05:03:09;4.60;;;4.07;;
13425;SDS011;6785;57.918;12.530;2023-06-26T05:05:37;7.33;;;4.50;;
13425;SDS011;6785;57.918;12.530;2023-06-26T05:08:13;4.60;;;4.10;;
13425;SDS011;6785;57.918;12.530;2023-06-26T05:10:43;6.20;;;4.37;;
13425;SDS011;6785;57.918;12.530;2023-06-26T05:13:10;5.87;;;4.13;;
13425;SDS011;6785;57.918;12.530;2023-06-26T05:15:40;5.70;;;4.00;;
13425;SDS011;6785;57.918;12.530;2023-06-26T05:18:07;4.60;;;4.17;;
13425;SDS011;6785;57.918;12.530;2023-06-26T05:20:34;4.90;;;4.40;;
13425;SDS011;6785;57.918;12.530;2023-06-26T05:23:01;5.20;;;3.93;;
13425;SDS011;6785;57.918;12.530;2023-06-26T05:25:29;4.80;;;4.20;;
13425;SDS011;6785;57.918;12.530;2023-06-26T05:27:58;4.90;;;3.93;;
13425;SDS011;6785;57.918;12.530;2023-06-26T05:30:26;4.63;;;4.23;;
13425;SDS011;6785;57.918;12.530;2023-06-26T05:32:56;4.73;;;4.23;;
13425;SDS011;6785;57.918;12.530;2023-06-26T05:35:27;5.87;;;3.87;;
13425;SDS011;6785;57.918;12.530;2023-06-26T05:37:56;4.67;;;4.20;;
13425;SDS011;6785;57.918;12.530;2023-06-26T05:40:24;5.30;;;4.37;;
13425;SDS011;6785;57.918;12.530;2023-06-26T05:42:52;7.13;;;4.57;;
13425;SDS011;6785;57.918;12.530;2023-06-26T05:45:21;5.13;;;4.50;;
13425;SDS011;6785;57.918;12.530;2023-06-26T05:47:47;4.93;;;4.50;;
13425;SDS011;6785;57.918;12.530;2023-06-26T05:50:16;4.40;;;4.00;;
13425;SDS011;6785;57.918;12.530;2023-06-26T05:52:45;4.77;;;4.30;;
13425;SDS011;6785;57.918;12.530;2023-06-26T05:55:13;4.50;;;4.10;;
13425;SDS011;6785;57.918;12.530;2023-06-26T05:57:41;7.57;;;4.40;;
13425;SDS011;6785;57.918;12.530;2023-06-26T06:00:09;5.00;;;4.03;;
13425;SDS011;6785;57.918;12.530;2023-06-26T06:02:39;4.77;;;4.37;;
13425;SDS011;6785;57.918;12.530;2023-06-26T06:05:08;4.20;;;3.83;;
13425;SDS011;6785;57.918;12.530;2023-06-26T06:07:35;5.63;;;3.93;;
13425;SDS011;6785;57.918;12.530;2023-06-26T06:10:03;3.73;;;3.43;;
13425;SDS011;6785;57.918;12.530;2023-06-26T06:12:31;5.50;;;3.97;;
13425;SDS011;6785;57.918;12.530;2023-06-26T06:14:58;4.03;;;3.63;;
13425;SDS011;6785;57.918;12.530;2023-06-26T06:17:25;4.00;;;3.70;;
13425;SDS011;6785;57.918;12.530;2023-06-26T06:22:26;3.77;;;3.40;;
13425;SDS011;6785;57.918;12.530;2023-06-26T06:24:53;4.27;;;3.87;;
13425;SDS011;6785;57.918;12.530;2023-06-26T06:27:20;6.00;;;3.43;;
13425;SDS011;6785;57.918;12.530;2023-06-26T06:29:47;4.73;;;3.30;;
13425;SDS011;6785;57.918;12.530;2023-06-26T06:32:14;3.53;;;3.20;;
13425;SDS011;6785;57.918;12.530;2023-06-26T06:34:41;4.50;;;3.00;;
13425;SDS011;6785;57.918;12.530;2023-06-26T06:37:08;3.50;;;3.20;;
13425;SDS011;6785;57.918;12.530;2023-06-26T06:39:36;3.95;;;3.40;;
13425;SDS011;6785;57.918;12.530;2023-06-26T06:42:03;5.45;;;3.50;;
13425;SDS011;6785;57.918;12.530;2023-06-26T06:44:31;3.10;;;2.80;;
13425;SDS011;6785;57.918;12.530;2023-06-26T06:46:57;4.22;;;3.08;;
13425;SDS011;6785;57.918;12.530;2023-06-26T06:49:25;2.50;;;2.30;;
13425;SDS011;6785;57.918;12.530;2023-06-26T06:51:52;5.10;;;2.92;;
13425;SDS011;6785;57.918;12.530;2023-06-26T06:54:19;2.85;;;2.65;;
13425;SDS011;6785;57.918;12.530;2023-06-26T06:56:47;3.22;;;2.92;;
13425;SDS011;6785;57.918;12.530;2023-06-26T06:59:14;2.67;;;2.47;;
13425;SDS011;6785;57.918;12.530;2023-06-26T07:01:41;2.50;;;2.30;;
13425;SDS011;6785;57.918;12.530;2023-06-26T07:04:08;2.63;;;2.42;;
13425;SDS011;6785;57.918;12.530;2023-06-26T07:06:35;2.75;;;2.45;;
13425;SDS011;6785;57.918;12.530;2023-06-26T07:09:02;2.22;;;2.10;;
13425;SDS011;6785;57.918;12.530;2023-06-26T07:11:31;2.60;;;2.40;;
13425;SDS011;6785;57.918;12.530;2023-06-26T07:13:59;2.72;;;2.28;;
13425;SDS011;6785;57.918;12.530;2023-06-26T07:16:26;2.47;;;2.20;;
13425;SDS011;6785;57.918;12.530;2023-06-26T07:18:53;2.15;;;2.00;;
13425;SDS011;6785;57.918;12.530;2023-06-26T07:21:20;2.33;;;2.13;;
13425;SDS011;6785;57.918;12.530;2023-06-26T07:23:47;1.95;;;1.85;;
13425;SDS011;6785;57.918;12.530;2023-06-26T07:26:14;2.25;;;2.05;;
13425;SDS011;6785;57.918;12.530;2023-06-26T07:28:41;1.75;;;1.60;;
13425;SDS011;6785;57.918;12.530;2023-06-26T07:31:10;2.58;;;1.90;;
13425;SDS011;6785;57.918;12.530;2023-06-26T07:33:37;2.40;;;1.80;;
13425;SDS011;6785;57.918;12.530;2023-06-26T07:36:04;1.77;;;1.67;;
13425;SDS011;6785;57.918;12.530;2023-06-26T07:38:31;2.13;;;1.92;;
13425;SDS011;6785;57.918;12.530;2023-06-26T07:40:58;1.80;;;1.70;;
13425;SDS011;6785;57.918;12.530;2023-06-26T07:43:25;1.92;;;1.80;;
13425;SDS011;6785;57.918;12.530;2023-06-26T07:45:52;2.35;;;2.15;;
13425;SDS011;6785;57.918;12.530;2023-06-26T07:48:20;2.53;;;2.33;;
13425;SDS011;6785;57.918;12.530;2023-06-26T07:50:47;2.78;;;2.45;;
13425;SDS011;6785;57.918;12.530;2023-06-26T07:53:14;2.72;;;2.53;;
13425;SDS011;6785;57.918;12.530;2023-06-26T07:55:42;3.08;;;2.60;;
13425;SDS011;6785;57.918;12.530;2023-06-26T07:58:09;3.15;;;2.65;;
13425;SDS011;6785;57.918;12.530;2023-06-26T08:00:36;2.80;;;2.50;;
13425;SDS011;6785;57.918;12.530;2023-06-26T08:03:03;4.50;;;2.50;;
13425;SDS011;6785;57.918;12.530;2023-06-26T08:05:31;2.58;;;2.38;;
13425;SDS011;6785;57.918;12.530;2023-06-26T08:07:58;2.80;;;2.55;;
13425;SDS011;6785;57.918;12.530;2023-06-26T08:10:27;2.67;;;2.47;;
13425;SDS011;6785;57.918;12.530;2023-06-26T08:12:55;2.80;;;2.53;;
13425;SDS011;6785;57.918;12.530;2023-06-26T08:15:23;2.67;;;2.47;;
13425;SDS011;6785;57.918;12.530;2023-06-26T08:17:50;2.85;;;2.50;;
13425;SDS011;6785;57.918;12.530;2023-06-26T08:20:17;2.60;;;2.40;;
13425;SDS011;6785;57.918;12.530;2023-06-26T08:22:46;2.75;;;2.45;;
13425;SDS011;6785;57.918;12.530;2023-06-26T08:25:15;2.38;;;2.03;;
13425;SDS011;6785;57.918;12.530;2023-06-26T08:27:43;3.08;;;2.80;;
13425;SDS011;6785;57.918;12.530;2023-06-26T08:30:10;3.10;;;2.40;;
13425;SDS011;6785;57.918;12.530;2023-06-26T08:32:38;2.63;;;2.42;;
13425;SDS011;6785;57.918;12.530;2023-06-26T08:35:06;4.18;;;2.70;;
13425;SDS011;6785;57.918;12.530;2023-06-26T08:37:35;2.60;;;2.40;;
13425;SDS011;6785;57.918;12.530;2023-06-26T08:40:04;4.13;;;2.80;;
13425;SDS011;6785;57.918;12.530;2023-06-26T08:42:33;3.67;;;2.60;;
13425;SDS011;6785;57.918;12.530;2023-06-26T08:45:00;2.88;;;2.63;;
13425;SDS011;6785;57.918;12.530;2023-06-26T08:47:28;5.50;;;2.90;;
13425;SDS011;6785;57.918;12.530;2023-06-26T08:50:01;10.13;;;2.60;;
13425;SDS011;6785;57.918;12.530;2023-06-26T08:52:42;3.40;;;2.75;;
13425;SDS011;6785;57.918;12.530;2023-06-26T08:55:21;3.00;;;2.70;;
13425;SDS011;6785;57.918;12.530;2023-06-26T08:57:53;3.03;;;2.72;;
13425;SDS011;6785;57.918;12.530;2023-06-26T09:00:20;3.10;;;2.78;;
13425;SDS011;6785;57.918;12.530;2023-06-26T09:02:47;2.75;;;2.55;;
13425;SDS011;6785;57.918;12.530;2023-06-26T09:05:14;2.47;;;2.28;;
13425;SDS011;6785;57.918;12.530;2023-06-26T09:07:41;2.63;;;2.42;;
13425;SDS011;6785;57.918;12.530;2023-06-26T09:10:11;3.78;;;2.60;;
13425;SDS011;6785;57.918;12.530;2023-06-26T09:12:45;2.72;;;2.53;;
13425;SDS011;6785;57.918;12.530;2023-06-26T09:15:13;3.75;;;3.05;;
13425;SDS011;6785;57.918;12.530;2023-06-26T09:17:41;4.50;;;2.85;;
13425;SDS011;6785;57.918;12.530;2023-06-26T09:20:09;4.70;;;3.00;;
13425;SDS011;6785;57.918;12.530;2023-06-26T09:22:37;3.33;;;2.80;;
13425;SDS011;6785;57.918;12.530;2023-06-26T09:25:07;3.50;;;3.00;;
13425;SDS011;6785;57.918;12.530;2023-06-26T09:27:35;4.05;;;2.63;;
13425;SDS011;6785;57.918;12.530;2023-06-26T09:30:05;27.38;;;10.95;;
13425;SDS011;6785;57.918;12.530;2023-06-26T09:32:33;11.43;;;5.70;;
13425;SDS011;6785;57.918;12.530;2023-06-26T09:35:01;25.90;;;4.53;;
13425;SDS011;6785;57.918;12.530;2023-06-26T09:37:31;3.22;;;2.92;;
13425;SDS011;6785;57.918;12.530;2023-06-26T09:40:00;4.10;;;3.20;;
13425;SDS011;6785;57.918;12.530;2023-06-26T09:42:28;30.42;;;5.15;;
13425;SDS011;6785;57.918;12.530;2023-06-26T09:44:55;4.95;;;3.10;;
13425;SDS011;6785;57.918;12.530;2023-06-26T09:47:24;3.90;;;3.03;;
13425;SDS011;6785;57.918;12.530;2023-06-26T09:49:51;4.20;;;3.20;;
13425;SDS011;6785;57.918;12.530;2023-06-26T09:52:20;7.70;;;3.13;;
13425;SDS011;6785;57.918;12.530;2023-06-26T09:54:47;3.42;;;3.13;;
13425;SDS011;6785;57.918;12.530;2023-06-26T09:57:15;8.00;;;3.50;;
13425;SDS011;6785;57.918;12.530;2023-06-26T09:59:44;3.95;;;2.95;;
13425;SDS011;6785;57.918;12.530;2023-06-26T10:02:11;5.03;;;3.50;;
13425;SDS011;6785;57.918;12.530;2023-06-26T10:04:40;3.67;;;3.10;;
13425;SDS011;6785;57.918;12.530;2023-06-26T10:07:08;5.35;;;3.60;;
13425;SDS011;6785;57.918;12.530;2023-06-26T10:09:41;3.67;;;3.30;;
13425;SDS011;6785;57.918;12.530;2023-06-26T10:12:15;3.78;;;3.47;;
13425;SDS011;6785;57.918;12.530;2023-06-26T10:14:51;4.05;;;3.38;;
13425;SDS011;6785;57.918;12.530;2023-06-26T10:17:20;3.40;;;3.10;;
13425;SDS011;6785;57.918;12.530;2023-06-26T10:19:53;3.78;;;3.47;;
13425;SDS011;6785;57.918;12.530;2023-06-26T10:22:21;3.90;;;3.35;;
13425;SDS011;6785;57.918;12.530;2023-06-26T10:24:59;3.53;;;3.20;;
13425;SDS011;6785;57.918;12.530;2023-06-26T10:27:32;3.65;;;3.35;;
13425;SDS011;6785;57.918;12.530;2023-06-26T10:30:05;3.92;;;3.55;;
13425;SDS011;6785;57.918;12.530;2023-06-26T10:32:40;3.90;;;3.50;;
13425;SDS011;6785;57.918;12.530;2023-06-26T10:35:09;4.03;;;3.50;;
13425;SDS011;6785;57.918;12.530;2023-06-26T10:37:40;4.22;;;3.83;;
13425;SDS011;6785;57.918;12.530;2023-06-26T10:40:09;4.30;;;3.90;;
13425;SDS011;6785;57.918;12.530;2023-06-26T10:42:37;3.70;;;3.40;;
13425;SDS011;6785;57.918;12.530;2023-06-26T10:45:09;3.65;;;3.30;;
13425;SDS011;6785;57.918;12.530;2023-06-26T10:47:39;3.50;;;3.20;;
13425;SDS011;6785;57.918;12.530;2023-06-26T10:55:44;3.80;;;3.38;;
13425;SDS011;6785;57.918;12.530;2023-06-26T10:59:52;4.00;;;3.58;;
13425;SDS011;6785;57.918;12.530;2023-06-26T11:01:54;3.78;;;3.47;;
13425;SDS011;6785;57.918;12.530;2023-06-26T11:04:35;3.92;;;3.40;;
13425;SDS011;6785;57.918;12.530;2023-06-26T11:07:19;6.80;;;3.80;;
13425;SDS011;6785;57.918;12.530;2023-06-26T11:09:57;23.77;;;5.38;;
13425;SDS011;6785;57.918;12.530;2023-06-26T11:12:36;3.90;;;3.60;;
13425;SDS011;6785;57.918;12.530;2023-06-26T11:15:07;3.80;;;3.28;;
13425;SDS011;6785;57.918;12.530;2023-06-26T11:17:35;3.40;;;3.10;;
13425;SDS011;6785;57.918;12.530;2023-06-26T11:20:04;3.88;;;3.58;;
13425;SDS011;6785;57.918;12.530;2023-06-26T11:22:36;6.68;;;3.92;;
13425;SDS011;6785;57.918;12.530;2023-06-26T11:25:05;4.22;;;3.83;;
13425;SDS011;6785;57.918;12.530;2023-06-26T11:27:37;3.72;;;3.13;;
13425;SDS011;6785;57.918;12.530;2023-06-26T11:30:05;3.85;;;3.45;;
13425;SDS011;6785;57.918;12.530;2023-06-26T11:32:35;5.18;;;3.85;;
13425;SDS011;6785;57.918;12.530;2023-06-26T11:35:03;5.47;;;3.72;;
13425;SDS011;6785;57.918;12.530;2023-06-26T11:37:31;5.28;;;3.95;;
13425;SDS011;6785;57.918;12.530;2023-06-26T11:40:15;4.18;;;3.30;;
13425;SDS011;6785;57.918;12.530;2023-06-26T11:42:44;3.97;;;3.38;;
13425;SDS011;6785;57.918;12.530;2023-06-26T11:45:11;4.03;;;3.53;;
13425;SDS011;6785;57.918;12.530;2023-06-26T11:47:38;6.88;;;3.80;;
13425;SDS011;6785;57.918;12.530;2023-06-26T11:50:05;4.57;;;3.75;;
13425;SDS011;6785;57.918;12.530;2023-06-26T11:52:33;4.07;;;3.67;;
13425;SDS011;6785;57.918;12.530;2023-06-26T11:55:01;4.13;;;3.63;;
13425;SDS011;6785;57.918;12.530;2023-06-26T11:57:28;3.65;;;3.35;;
13425;SDS011;6785;57.918;12.530;2023-06-26T11:59:57;3.90;;;3.50;;
13425;SDS011;6785;57.918;12.530;2023-06-26T12:02:24;4.47;;;3.42;;
13425;SDS011;6785;57.918;12.530;2023-06-26T12:04:52;4.03;;;3.63;;
13425;SDS011;6785;57.918;12.530;2023-06-26T12:07:19;3.70;;;3.40;;
13425;SDS011;6785;57.918;12.530;2023-06-26T12:09:48;4.65;;;4.25;;
13425;SDS011;6785;57.918;12.530;2023-06-26T12:12:17;5.55;;;4.13;;
13425;SDS011;6785;57.918;12.530;2023-06-26T12:14:45;3.40;;;3.10;;
13425;SDS011;6785;57.918;12.530;2023-06-26T12:17:13;4.03;;;3.50;;
13425;SDS011;6785;57.918;12.530;2023-06-26T12:19:43;4.25;;;3.40;;
13425;SDS011;6785;57.918;12.530;2023-06-26T12:22:13;3.83;;;3.42;;
13425;SDS011;6785;57.918;12.530;2023-06-26T12:24:40;4.20;;;3.50;;
13425;SDS011;6785;57.918;12.530;2023-06-26T12:27:08;4.05;;;3.75;;
13425;SDS011;6785;57.918;12.530;2023-06-26T12:29:38;3.88;;;3.45;;
13425;SDS011;6785;57.918;12.530;2023-06-26T12:32:10;4.53;;;3.65;;
13425;SDS011;6785;57.918;12.530;2023-06-26T12:34:39;5.70;;;3.70;;
13425;SDS011;6785;57.918;12.530;2023-06-26T12:37:07;3.63;;;3.33;;
13425;SDS011;6785;57.918;12.530;2023-06-26T12:39:46;3.60;;;3.30;;
13425;SDS011;6785;57.918;12.530;2023-06-26T12:42:16;4.88;;;3.80;;
13425;SDS011;6785;57.918;12.530;2023-06-26T12:44:46;4.35;;;3.95;;
13425;SDS011;6785;57.918;12.530;2023-06-26T12:47:14;4.55;;;4.10;;
13425;SDS011;6785;57.918;12.530;2023-06-26T12:49:43;4.38;;;3.78;;
13425;SDS011;6785;57.918;12.530;2023-06-26T12:52:12;4.07;;;3.78;;
13425;SDS011;6785;57.918;12.530;2023-06-26T12:54:42;3.95;;;3.55;;
13425;SDS011;6785;57.918;12.530;2023-06-26T12:57:11;4.95;;;3.90;;
13425;SDS011;6785;57.918;12.530;2023-06-26T12:59:40;4.25;;;3.85;;
13425;SDS011;6785;57.918;12.530;2023-06-26T13:02:09;3.53;;;3.22;;
13425;SDS011;6785;57.918;12.530;2023-06-26T13:04:44;4.90;;;3.75;;
13425;SDS011;6785;57.918;12.530;2023-06-26T13:07:11;4.15;;;3.70;;
13425;SDS011;6785;57.918;12.530;2023-06-26T13:09:38;4.28;;;3.88;;
13425;SDS011;6785;57.918;12.530;2023-06-26T13:12:06;4.35;;;3.95;;
13425;SDS011;6785;57.918;12.530;2023-06-26T13:14:34;3.90;;;3.50;;
13425;SDS011;6785;57.918;12.530;2023-06-26T13:17:01;4.05;;;3.58;;
13425;SDS011;6785;57.918;12.530;2023-06-26T13:19:29;4.05;;;3.67;;
13425;SDS011;6785;57.918;12.530;2023-06-26T13:21:56;4.72;;;4.22;;
13425;SDS011;6785;57.918;12.530;2023-06-26T13:24:25;4.55;;;3.70;;
13425;SDS011;6785;57.918;12.530;2023-06-26T13:26:52;4.40;;;4.00;;
13425;SDS011;6785;57.918;12.530;2023-06-26T13:29:19;4.63;;;4.05;;
13425;SDS011;6785;57.918;12.530;2023-06-26T13:31:46;3.92;;;3.63;;
13425;SDS011;6785;57.918;12.530;2023-06-26T13:34:20;4.40;;;4.00;;
13425;SDS011;6785;57.918;12.530;2023-06-26T13:36:49;4.22;;;3.85;;
13425;SDS011;6785;57.918;12.530;2023-06-26T13:39:16;4.30;;;3.78;;
13425;SDS011;6785;57.918;12.530;2023-06-26T13:41:43;4.82;;;3.50;;
13425;SDS011;6785;57.918;12.530;2023-06-26T13:44:11;5.70;;;3.53;;
13425;SDS011;6785;57.918;12.530;2023-06-26T13:46:40;4.20;;;3.80;;
13425;SDS011;6785;57.918;12.530;2023-06-26T13:49:09;4.20;;;3.80;;
13425;SDS011;6785;57.918;12.530;2023-06-26T13:51:36;4.75;;;3.80;;
13425;SDS011;6785;57.918;12.530;2023-06-26T13:54:06;4.80;;;3.67;;
13425;SDS011;6785;57.918;12.530;2023-06-26T13:56:33;4.22;;;3.83;;
13425;SDS011;6785;57.918;12.530;2023-06-26T13:59:00;3.90;;;3.55;;
13425;SDS011;6785;57.918;12.530;2023-06-26T14:01:29;4.10;;;3.80;;
13425;SDS011;6785;57.918;12.530;2023-06-26T14:03:56;5.15;;;3.78;;
13425;SDS011;6785;57.918;12.530;2023-06-26T14:06:22;3.80;;;3.50;;
13425;SDS011;6785;57.918;12.530;2023-06-26T14:08:50;4.60;;;4.20;;
13425;SDS011;6785;57.918;12.530;2023-06-26T14:11:18;4.00;;;3.67;;
13425;SDS011;6785;57.918;12.530;2023-06-26T14:13:45;4.22;;;3.83;;
13425;SDS011;6785;57.918;12.530;2023-06-26T14:16:12;4.13;;;3.72;;
13425;SDS011;6785;57.918;12.530;2023-06-26T14:18:40;5.18;;;3.88;;
13425;SDS011;6785;57.918;12.530;2023-06-26T14:21:07;4.50;;;4.10;;
13425;SDS011;6785;57.918;12.530;2023-06-26T14:23:34;4.28;;;3.88;;
13425;SDS011;6785;57.918;12.530;2023-06-26T14:26:01;4.35;;;3.97;;
13425;SDS011;6785;57.918;12.530;2023-06-26T14:28:29;4.00;;;3.50;;
13425;SDS011;6785;57.918;12.530;2023-06-26T14:30:56;4.50;;;3.80;;
13425;SDS011;6785;57.918;12.530;2023-06-26T14:33:24;5.65;;;4.03;;
13425;SDS011;6785;57.918;12.530;2023-06-26T14:35:50;4.72;;;3.70;;
13425;SDS011;6785;57.918;12.530;2023-06-26T14:38:17;4.07;;;3.67;;
13425;SDS011;6785;57.918;12.530;2023-06-26T14:40:45;4.55;;;3.97;;
13425;SDS011;6785;57.918;12.530;2023-06-26T14:43:12;5.55;;;4.05;;
13425;SDS011;6785;57.918;12.530;2023-06-26T14:45:41;7.05;;;3.72;;
13425;SDS011;6785;57.918;12.530;2023-06-26T14:48:08;4.32;;;3.92;;
13425;SDS011;6785;57.918;12.530;2023-06-26T14:50:36;5.13;;;3.70;;
13425;SDS011;6785;57.918;12.530;2023-06-26T14:53:02;9.15;;;3.40;;
13425;SDS011;6785;57.918;12.530;2023-06-26T14:55:30;5.63;;;3.63;;
13425;SDS011;6785;57.918;12.530;2023-06-26T14:57:57;6.32;;;3.33;;
13425;SDS011;6785;57.918;12.530;2023-06-26T15:00:24;6.30;;;3.45;;
13425;SDS011;6785;57.918;12.530;2023-06-26T15:02:53;6.65;;;3.60;;
13425;SDS011;6785;57.918;12.530;2023-06-26T15:05:20;7.27;;;3.57;;